KSEM/SEM METAR and TAF weather

Enter ICAO airport designator
Station Type Date Time Source
KSEM METAR 2021/03/06 06:35 UTC NOAA

KSEM 060635Z AUTO 03008KT 10SM SCT075 OVC110 13/M07 A3009 RMK AO2


Station Type Date Time Source
KSEM Decoded METAR 2021/03/06 06:35 UTC NOAA

Craig Field / Selma, AL, United States (KSEM) 32-21N 086-59W
Mar 06, 2021 - 01:35 AM EST / 2021.03.06 0635 UTC
Wind: from the NNE (030 degrees) at 9 MPH (8 KT):0
Visibility: 10 mile(s):0
Sky conditions: overcast
Temperature: 55 F (13 C)
Dew Point: 19 F (-7 C)
Relative Humidity: 24%
Pressure (altimeter): 30.09 in. Hg (1018 hPa)
ob: KSEM 060635Z AUTO 03008KT 10SM SCT075 OVC110 13/M07 A3009 RMK AO2
cycle: 6

Station Type Date Time Source
KSEM TAF UTC NOAA

Error!

Example: see airport list